sensor_id;sensor_type;location;lat;lon;timestamp;pressure;altitude;pressure_sealevel;temperature;humidity
6851;BME280;3464;42.728;23.296;2022-09-09T00:01:00;95467.23;;;23.64;59.18
6851;BME280;3464;42.728;23.296;2022-09-09T00:03:26;95464.05;;;23.89;58.54
6851;BME280;3464;42.728;23.296;2022-09-09T00:06:09;95457.63;;;23.79;58.80
6851;BME280;3464;42.728;23.296;2022-09-09T00:08:42;95457.24;;;23.78;58.94
6851;BME280;3464;42.728;23.296;2022-09-09T00:11:05;95459.30;;;23.69;59.12
6851;BME280;3464;42.728;23.296;2022-09-09T00:13:35;95461.34;;;23.72;59.57
6851;BME280;3464;42.728;23.296;2022-09-09T00:16:11;95465.28;;;23.59;60.19
6851;BME280;3464;42.728;23.296;2022-09-09T00:21:25;95449.77;;;23.72;59.90
6851;BME280;3464;42.728;23.296;2022-09-09T00:23:51;95444.33;;;23.68;60.18
6851;BME280;3464;42.728;23.296;2022-09-09T00:26:33;95443.20;;;23.75;59.68
6851;BME280;3464;42.728;23.296;2022-09-09T00:29:05;95437.54;;;23.77;59.62
6851;BME280;3464;42.728;23.296;2022-09-09T00:31:30;95437.64;;;23.64;59.90
6851;BME280;3464;42.728;23.296;2022-09-09T00:33:58;95430.73;;;23.76;59.46
6851;BME280;3464;42.728;23.296;2022-09-09T00:36:24;95429.51;;;23.75;59.44
6851;BME280;3464;42.728;23.296;2022-09-09T00:38:55;95427.12;;;23.70;59.60
6851;BME280;3464;42.728;23.296;2022-09-09T00:41:42;95424.77;;;23.54;60.44
6851;BME280;3464;42.728;23.296;2022-09-09T00:44:15;95420.86;;;23.22;61.13
6851;BME280;3464;42.728;23.296;2022-09-09T00:46:50;95425.05;;;23.25;61.22
6851;BME280;3464;42.728;23.296;2022-09-09T00:49:36;95431.29;;;23.73;59.91
6851;BME280;3464;42.728;23.296;2022-09-09T00:54:48;95433.41;;;23.30;60.75
6851;BME280;3464;42.728;23.296;2022-09-09T00:57:30;95426.97;;;23.53;60.09
6851;BME280;3464;42.728;23.296;2022-09-09T01:02:45;95423.89;;;23.44;60.21
6851;BME280;3464;42.728;23.296;2022-09-09T01:05:16;95422.28;;;23.41;60.41
6851;BME280;3464;42.728;23.296;2022-09-09T01:07:40;95426.33;;;23.13;61.33
6851;BME280;3464;42.728;23.296;2022-09-09T01:10:09;95427.63;;;23.25;61.08
6851;BME280;3464;42.728;23.296;2022-09-09T01:12:44;95431.00;;;23.26;61.16
6851;BME280;3464;42.728;23.296;2022-09-09T01:15:12;95434.41;;;23.49;60.88
6851;BME280;3464;42.728;23.296;2022-09-09T01:17:46;95439.98;;;23.48;60.73
6851;BME280;3464;42.728;23.296;2022-09-09T01:20:14;95430.60;;;23.36;61.39
6851;BME280;3464;42.728;23.296;2022-09-09T01:22:43;95429.05;;;23.54;60.83
6851;BME280;3464;42.728;23.296;2022-09-09T01:25:27;95427.89;;;23.51;60.84
6851;BME280;3464;42.728;23.296;2022-09-09T01:27:53;95425.97;;;23.46;60.98
6851;BME280;3464;42.728;23.296;2022-09-09T01:30:19;95426.72;;;23.48;60.96
6851;BME280;3464;42.728;23.296;2022-09-09T01:32:47;95431.10;;;23.46;61.39
6851;BME280;3464;42.728;23.296;2022-09-09T01:35:26;95436.77;;;23.32;61.72
6851;BME280;3464;42.728;23.296;2022-09-09T01:37:47;95442.97;;;23.15;62.46
6851;BME280;3464;42.728;23.296;2022-09-09T01:40:13;95446.72;;;23.06;62.92
6851;BME280;3464;42.728;23.296;2022-09-09T01:42:40;95447.33;;;23.01;63.18
6851;BME280;3464;42.728;23.296;2022-09-09T01:45:08;95448.06;;;23.05;63.45
6851;BME280;3464;42.728;23.296;2022-09-09T01:47:34;95448.06;;;22.93;63.87
6851;BME280;3464;42.728;23.296;2022-09-09T01:50:01;95450.91;;;22.85;64.09
6851;BME280;3464;42.728;23.296;2022-09-09T01:52:27;95451.61;;;22.77;64.42
6851;BME280;3464;42.728;23.296;2022-09-09T01:54:54;95451.44;;;22.83;64.26
6851;BME280;3464;42.728;23.296;2022-09-09T01:57:31;95452.03;;;22.89;63.93
6851;BME280;3464;42.728;23.296;2022-09-09T02:00:12;95449.94;;;22.65;64.38
6851;BME280;3464;42.728;23.296;2022-09-09T02:02:54;95442.71;;;23.10;62.85
6851;BME280;3464;42.728;23.296;2022-09-09T02:05:28;95441.90;;;23.09;62.82
6851;BME280;3464;42.728;23.296;2022-09-09T02:07:55;95443.41;;;23.03;63.04
6851;BME280;3464;42.728;23.296;2022-09-09T02:10:22;95441.22;;;22.93;63.27
6851;BME280;3464;42.728;23.296;2022-09-09T02:12:52;95432.27;;;23.04;62.91
6851;BME280;3464;42.728;23.296;2022-09-09T02:15:23;95425.02;;;22.91;63.18
6851;BME280;3464;42.728;23.296;2022-09-09T02:17:49;95430.22;;;22.89;63.33
6851;BME280;3464;42.728;23.296;2022-09-09T02:20:16;95433.84;;;22.72;63.98
6851;BME280;3464;42.728;23.296;2022-09-09T02:22:43;95427.81;;;22.85;63.74
6851;BME280;3464;42.728;23.296;2022-09-09T02:25:11;95435.76;;;23.02;63.22
6851;BME280;3464;42.728;23.296;2022-09-09T02:27:37;95432.45;;;23.00;63.13
6851;BME280;3464;42.728;23.296;2022-09-09T02:30:04;95434.80;;;22.93;63.23
6851;BME280;3464;42.728;23.296;2022-09-09T02:32:30;95433.79;;;22.97;62.79
6851;BME280;3464;42.728;23.296;2022-09-09T02:34:59;95445.75;;;22.98;62.62
6851;BME280;3464;42.728;23.296;2022-09-09T02:37:25;95442.83;;;22.60;63.60
6851;BME280;3464;42.728;23.296;2022-09-09T02:39:50;95454.73;;;22.36;64.29
6851;BME280;3464;42.728;23.296;2022-09-09T02:42:17;95454.92;;;22.06;65.56
6851;BME280;3464;42.728;23.296;2022-09-09T02:44:44;95458.05;;;22.15;65.74
6851;BME280;3464;42.728;23.296;2022-09-09T02:47:21;95458.78;;;22.31;65.18
6851;BME280;3464;42.728;23.296;2022-09-09T02:50:23;95454.84;;;22.33;65.02
6851;BME280;3464;42.728;23.296;2022-09-09T02:53:08;95449.30;;;22.83;63.44
6851;BME280;3464;42.728;23.296;2022-09-09T02:55:58;95457.30;;;22.36;64.66
6851;BME280;3464;42.728;23.296;2022-09-09T02:58:23;95454.73;;;22.12;65.64
6851;BME280;3464;42.728;23.296;2022-09-09T03:00:50;95453.77;;;22.15;65.86
6851;BME280;3464;42.728;23.296;2022-09-09T03:03:17;95450.41;;;22.13;65.94
6851;BME280;3464;42.728;23.296;2022-09-09T03:05:45;95457.35;;;21.97;66.41
6851;BME280;3464;42.728;23.296;2022-09-09T03:08:12;95457.75;;;21.71;67.02
6851;BME280;3464;42.728;23.296;2022-09-09T03:10:38;95453.89;;;21.58;67.57
6851;BME280;3464;42.728;23.296;2022-09-09T03:13:04;95457.45;;;21.54;68.08
6851;BME280;3464;42.728;23.296;2022-09-09T03:15:32;95456.55;;;21.83;67.11
6851;BME280;3464;42.728;23.296;2022-09-09T03:17:58;95463.56;;;21.77;67.26
6851;BME280;3464;42.728;23.296;2022-09-09T03:20:25;95452.09;;;21.61;67.88
6851;BME280;3464;42.728;23.296;2022-09-09T03:22:52;95459.29;;;21.49;68.32
6851;BME280;3464;42.728;23.296;2022-09-09T03:25:20;95447.62;;;21.54;68.10
6851;BME280;3464;42.728;23.296;2022-09-09T03:27:47;95441.67;;;22.06;66.38
6851;BME280;3464;42.728;23.296;2022-09-09T03:30:14;95445.17;;;22.17;65.64
6851;BME280;3464;42.728;23.296;2022-09-09T03:32:41;95442.78;;;22.48;65.24
6851;BME280;3464;42.728;23.296;2022-09-09T03:35:08;95439.23;;;22.53;64.39
6851;BME280;3464;42.728;23.296;2022-09-09T03:37:36;95444.42;;;22.64;64.01
6851;BME280;3464;42.728;23.296;2022-09-09T03:40:03;95441.91;;;22.50;64.39
6851;BME280;3464;42.728;23.296;2022-09-09T03:42:30;95444.59;;;22.71;63.62
6851;BME280;3464;42.728;23.296;2022-09-09T03:44:57;95439.94;;;22.44;64.29
6851;BME280;3464;42.728;23.296;2022-09-09T03:47:23;95449.98;;;22.38;64.67
6851;BME280;3464;42.728;23.296;2022-09-09T03:49:50;95456.57;;;22.45;64.66
6851;BME280;3464;42.728;23.296;2022-09-09T03:52:17;95456.15;;;22.70;63.70
6851;BME280;3464;42.728;23.296;2022-09-09T03:54:45;95445.88;;;22.71;63.66
6851;BME280;3464;42.728;23.296;2022-09-09T03:57:12;95449.09;;;22.76;63.67
6851;BME280;3464;42.728;23.296;2022-09-09T03:59:38;95461.97;;;22.87;63.66
6851;BME280;3464;42.728;23.296;2022-09-09T04:02:05;95460.38;;;22.83;63.87
6851;BME280;3464;42.728;23.296;2022-09-09T04:04:33;95462.56;;;22.94;63.96
6851;BME280;3464;42.728;23.296;2022-09-09T04:06:59;95460.41;;;23.07;64.27
6851;BME280;3464;42.728;23.296;2022-09-09T04:09:26;95456.56;;;23.30;63.28
6851;BME280;3464;42.728;23.296;2022-09-09T04:11:52;95455.27;;;23.40;62.43
6851;BME280;3464;42.728;23.296;2022-09-09T04:14:20;95447.19;;;23.61;61.79
6851;BME280;3464;42.728;23.296;2022-09-09T04:16:48;95443.04;;;23.68;61.23
6851;BME280;3464;42.728;23.296;2022-09-09T04:19:14;95449.17;;;23.87;60.95
6851;BME280;3464;42.728;23.296;2022-09-09T04:21:41;95445.20;;;23.89;61.88
6851;BME280;3464;42.728;23.296;2022-09-09T04:24:08;95446.09;;;24.10;61.01
6851;BME280;3464;42.728;23.296;2022-09-09T04:26:38;95448.67;;;24.30;60.38
6851;BME280;3464;42.728;23.296;2022-09-09T04:29:04;95457.11;;;24.65;59.33
6851;BME280;3464;42.728;23.296;2022-09-09T04:31:31;95457.77;;;25.82;56.95
6851;BME280;3464;42.728;23.296;2022-09-09T04:33:57;95452.56;;;26.69;55.00
6851;BME280;3464;42.728;23.296;2022-09-09T04:36:24;95446.86;;;27.67;51.96
6851;BME280;3464;42.728;23.296;2022-09-09T04:38:51;95446.20;;;28.55;50.49
6851;BME280;3464;42.728;23.296;2022-09-09T04:41:17;95448.56;;;29.02;48.63
6851;BME280;3464;42.728;23.296;2022-09-09T04:43:44;95448.25;;;29.90;46.72
6851;BME280;3464;42.728;23.296;2022-09-09T04:46:10;95453.49;;;30.29;45.46
6851;BME280;3464;42.728;23.296;2022-09-09T04:48:37;95449.86;;;29.71;45.37
6851;BME280;3464;42.728;23.296;2022-09-09T04:51:04;95446.00;;;29.50;45.97
6851;BME280;3464;42.728;23.296;2022-09-09T04:53:31;95434.52;;;30.01;45.13
6851;BME280;3464;42.728;23.296;2022-09-09T04:56:04;95424.84;;;30.81;43.71
6851;BME280;3464;42.728;23.296;2022-09-09T04:58:29;95437.76;;;30.76;42.76
6851;BME280;3464;42.728;23.296;2022-09-09T05:01:02;95444.70;;;32.51;40.53
6851;BME280;3464;42.728;23.296;2022-09-09T05:03:22;95447.86;;;33.90;38.74
6851;BME280;3464;42.728;23.296;2022-09-09T05:05:49;95441.28;;;34.22;37.67
6851;BME280;3464;42.728;23.296;2022-09-09T05:08:15;95424.12;;;35.17;36.09
6851;BME280;3464;42.728;23.296;2022-09-09T05:10:42;95417.17;;;33.81;36.71
6851;BME280;3464;42.728;23.296;2022-09-09T05:13:08;95432.48;;;34.07;36.76
6851;BME280;3464;42.728;23.296;2022-09-09T05:15:35;95442.36;;;33.05;37.90
6851;BME280;3464;42.728;23.296;2022-09-09T05:18:01;95446.05;;;32.68;38.82
6851;BME280;3464;42.728;23.296;2022-09-09T05:20:28;95438.78;;;33.17;37.80
6851;BME280;3464;42.728;23.296;2022-09-09T05:22:56;95432.72;;;32.72;38.19
6851;BME280;3464;42.728;23.296;2022-09-09T05:25:22;95422.59;;;34.94;35.31
6851;BME280;3464;42.728;23.296;2022-09-09T05:27:49;95421.04;;;35.82;33.95
6851;BME280;3464;42.728;23.296;2022-09-09T05:30:16;95429.41;;;34.08;36.07
6851;BME280;3464;42.728;23.296;2022-09-09T05:32:42;95427.34;;;35.10;35.06
6851;BME280;3464;42.728;23.296;2022-09-09T05:35:09;95430.95;;;35.59;33.76
6851;BME280;3464;42.728;23.296;2022-09-09T05:37:35;95426.24;;;35.97;33.69
6851;BME280;3464;42.728;23.296;2022-09-09T05:40:02;95430.25;;;33.86;35.47
6851;BME280;3464;42.728;23.296;2022-09-09T05:42:30;95431.53;;;35.87;32.51
6851;BME280;3464;42.728;23.296;2022-09-09T05:44:56;95427.52;;;36.65;32.10
6851;BME280;3464;42.728;23.296;2022-09-09T05:47:23;95434.41;;;38.65;29.85
6851;BME280;3464;42.728;23.296;2022-09-09T05:49:49;95432.75;;;39.83;28.52
6851;BME280;3464;42.728;23.296;2022-09-09T05:52:16;95433.41;;;38.54;28.99
6851;BME280;3464;42.728;23.296;2022-09-09T05:54:44;95430.56;;;37.80;30.19
6851;BME280;3464;42.728;23.296;2022-09-09T05:57:10;95435.25;;;37.03;31.27
6851;BME280;3464;42.728;23.296;2022-09-09T05:59:37;95436.62;;;38.30;29.67
6851;BME280;3464;42.728;23.296;2022-09-09T06:02:04;95439.01;;;38.23;29.90
6851;BME280;3464;42.728;23.296;2022-09-09T06:04:31;95444.15;;;38.99;29.39
6851;BME280;3464;42.728;23.296;2022-09-09T06:06:57;95448.05;;;41.11;27.13
6851;BME280;3464;42.728;23.296;2022-09-09T06:09:24;95443.81;;;41.05;27.16
6851;BME280;3464;42.728;23.296;2022-09-09T06:11:50;95439.28;;;41.37;26.66
6851;BME280;3464;42.728;23.296;2022-09-09T06:14:17;95440.94;;;40.87;26.80
6851;BME280;3464;42.728;23.296;2022-09-09T06:16:44;95439.90;;;40.24;27.50
6851;BME280;3464;42.728;23.296;2022-09-09T06:19:11;95444.94;;;40.38;27.58
6851;BME280;3464;42.728;23.296;2022-09-09T06:21:37;95447.88;;;41.47;26.52
6851;BME280;3464;42.728;23.296;2022-09-09T06:24:04;95439.00;;;41.60;26.06
6851;BME280;3464;42.728;23.296;2022-09-09T06:26:33;95450.59;;;42.66;24.80
6851;BME280;3464;42.728;23.296;2022-09-09T06:29:01;95444.02;;;43.03;24.32
6851;BME280;3464;42.728;23.296;2022-09-09T06:31:28;95443.61;;;42.73;24.29
6851;BME280;3464;42.728;23.296;2022-09-09T06:33:56;95444.09;;;43.61;23.68
6851;BME280;3464;42.728;23.296;2022-09-09T06:36:24;95429.75;;;43.44;23.51
6851;BME280;3464;42.728;23.296;2022-09-09T06:38:50;95429.16;;;43.05;23.88
6851;BME280;3464;42.728;23.296;2022-09-09T06:41:18;95429.40;;;42.96;24.03
6851;BME280;3464;42.728;23.296;2022-09-09T06:43:45;95427.32;;;42.80;23.93
6851;BME280;3464;42.728;23.296;2022-09-09T06:46:13;95423.04;;;43.09;23.71
6851;BME280;3464;42.728;23.296;2022-09-09T06:48:39;95417.46;;;43.69;23.09
6851;BME280;3464;42.728;23.296;2022-09-09T06:51:09;95432.91;;;44.20;22.88
6851;BME280;3464;42.728;23.296;2022-09-09T06:53:35;95437.43;;;41.58;24.66
6851;BME280;3464;42.728;23.296;2022-09-09T06:56:35;95437.83;;;43.25;23.43
6851;BME280;3464;42.728;23.296;2022-09-09T06:58:44;95439.31;;;44.25;22.31
6851;BME280;3464;42.728;23.296;2022-09-09T07:01:13;95446.62;;;44.90;21.85
6851;BME280;3464;42.728;23.296;2022-09-09T07:03:41;95440.45;;;44.27;22.27
6851;BME280;3464;42.728;23.296;2022-09-09T07:06:09;95441.14;;;43.41;23.15
6851;BME280;3464;42.728;23.296;2022-09-09T07:08:47;95443.00;;;43.22;22.95
6851;BME280;3464;42.728;23.296;2022-09-09T07:11:14;95440.77;;;42.29;23.78
6851;BME280;3464;42.728;23.296;2022-09-09T07:13:40;95434.56;;;40.89;24.81
6851;BME280;3464;42.728;23.296;2022-09-09T07:16:09;95429.13;;;39.47;26.25
6851;BME280;3464;42.728;23.296;2022-09-09T07:18:35;95438.34;;;38.74;27.65
6851;BME280;3464;42.728;23.296;2022-09-09T07:21:02;95440.22;;;38.07;28.33
6851;BME280;3464;42.728;23.296;2022-09-09T07:23:31;95435.00;;;37.61;28.90
6851;BME280;3464;42.728;23.296;2022-09-09T07:25:59;95433.38;;;36.67;29.91
6851;BME280;3464;42.728;23.296;2022-09-09T07:28:26;95429.23;;;36.46;30.51
6851;BME280;3464;42.728;23.296;2022-09-09T07:30:55;95427.64;;;35.81;30.76
6851;BME280;3464;42.728;23.296;2022-09-09T07:33:21;95431.08;;;36.02;30.51
6851;BME280;3464;42.728;23.296;2022-09-09T07:35:48;95425.67;;;35.19;31.25
6851;BME280;3464;42.728;23.296;2022-09-09T07:38:14;95423.72;;;35.37;31.11
6851;BME280;3464;42.728;23.296;2022-09-09T07:40:41;95412.71;;;34.41;32.23
6851;BME280;3464;42.728;23.296;2022-09-09T07:43:07;95428.89;;;35.43;31.68
6851;BME280;3464;42.728;23.296;2022-09-09T07:45:34;95438.66;;;36.24;30.78
6851;BME280;3464;42.728;23.296;2022-09-09T07:48:01;95433.85;;;36.72;30.24
6851;BME280;3464;42.728;23.296;2022-09-09T07:50:27;95437.25;;;36.30;31.21
6851;BME280;3464;42.728;23.296;2022-09-09T07:52:53;95435.10;;;36.58;30.02
6851;BME280;3464;42.728;23.296;2022-09-09T07:55:21;95435.89;;;35.97;30.90
6851;BME280;3464;42.728;23.296;2022-09-09T07:57:47;95437.44;;;35.04;31.89
6851;BME280;3464;42.728;23.296;2022-09-09T08:00:14;95427.17;;;34.81;32.54
6851;BME280;3464;42.728;23.296;2022-09-09T08:02:42;95429.87;;;35.66;31.76
6851;BME280;3464;42.728;23.296;2022-09-09T08:05:10;95428.78;;;35.54;32.08
6851;BME280;3464;42.728;23.296;2022-09-09T08:07:37;95431.38;;;35.19;32.43
6851;BME280;3464;42.728;23.296;2022-09-09T08:10:04;95432.59;;;35.80;31.49
6851;BME280;3464;42.728;23.296;2022-09-09T08:12:30;95428.48;;;35.67;31.42
6851;BME280;3464;42.728;23.296;2022-09-09T08:14:57;95430.23;;;35.96;31.69
6851;BME280;3464;42.728;23.296;2022-09-09T08:17:23;95431.95;;;36.06;31.12
6851;BME280;3464;42.728;23.296;2022-09-09T08:19:50;95432.64;;;35.94;31.11
6851;BME280;3464;42.728;23.296;2022-09-09T08:22:17;95427.25;;;36.44;30.63
6851;BME280;3464;42.728;23.296;2022-09-09T08:24:43;95429.13;;;36.18;30.80
6851;BME280;3464;42.728;23.296;2022-09-09T08:27:10;95425.93;;;37.00;30.46
6851;BME280;3464;42.728;23.296;2022-09-09T08:29:36;95422.77;;;37.66;29.67
6851;BME280;3464;42.728;23.296;2022-09-09T08:32:03;95413.60;;;38.14;29.03
6851;BME280;3464;42.728;23.296;2022-09-09T08:34:30;95423.61;;;37.15;29.95
6851;BME280;3464;42.728;23.296;2022-09-09T08:36:56;95422.77;;;37.56;29.51
6851;BME280;3464;42.728;23.296;2022-09-09T08:39:23;95411.28;;;37.89;29.40
6851;BME280;3464;42.728;23.296;2022-09-09T08:42:09;95416.80;;;37.69;29.11
6851;BME280;3464;42.728;23.296;2022-09-09T08:50:17;95403.49;;;35.78;31.82
6851;BME280;3464;42.728;23.296;2022-09-09T08:55:49;95408.05;;;35.36;31.95
6851;BME280;3464;42.728;23.296;2022-09-09T08:58:17;95413.72;;;36.39;30.89
6851;BME280;3464;42.728;23.296;2022-09-09T09:00:59;95410.23;;;36.86;31.69
6851;BME280;3464;42.728;23.296;2022-09-09T09:03:28;95402.84;;;36.66;30.66
6851;BME280;3464;42.728;23.296;2022-09-09T09:06:06;95406.00;;;37.12;30.30
6851;BME280;3464;42.728;23.296;2022-09-09T09:08:39;95403.40;;;37.89;31.36
6851;BME280;3464;42.728;23.296;2022-09-09T09:11:03;95403.97;;;37.56;31.56
6851;BME280;3464;42.728;23.296;2022-09-09T09:13:42;95403.07;;;36.26;31.13
6851;BME280;3464;42.728;23.296;2022-09-09T09:18:43;95406.04;;;35.34;32.34
6851;BME280;3464;42.728;23.296;2022-09-09T09:21:12;95397.41;;;36.07;31.82
6851;BME280;3464;42.728;23.296;2022-09-09T09:23:41;95393.47;;;36.59;31.03
6851;BME280;3464;42.728;23.296;2022-09-09T09:26:07;95392.06;;;36.69;31.02
6851;BME280;3464;42.728;23.296;2022-09-09T09:28:33;95397.45;;;36.73;31.07
6851;BME280;3464;42.728;23.296;2022-09-09T09:31:03;95399.29;;;36.39;31.33
6851;BME280;3464;42.728;23.296;2022-09-09T09:33:45;95395.13;;;35.78;32.09
6851;BME280;3464;42.728;23.296;2022-09-09T09:36:10;95395.61;;;36.02;31.92
6851;BME280;3464;42.728;23.296;2022-09-09T09:38:36;95388.77;;;36.86;31.40
6851;BME280;3464;42.728;23.296;2022-09-09T09:41:03;95390.70;;;37.31;30.50
6851;BME280;3464;42.728;23.296;2022-09-09T09:43:30;95386.81;;;37.30;30.72
6851;BME280;3464;42.728;23.296;2022-09-09T09:45:57;95378.34;;;37.68;30.15
6851;BME280;3464;42.728;23.296;2022-09-09T09:48:25;95378.58;;;38.28;30.15
6851;BME280;3464;42.728;23.296;2022-09-09T09:50:53;95376.28;;;38.06;30.30
6851;BME280;3464;42.728;23.296;2022-09-09T09:53:34;95375.97;;;37.34;30.82
6851;BME280;3464;42.728;23.296;2022-09-09T09:56:09;95370.55;;;36.75;31.12
6851;BME280;3464;42.728;23.296;2022-09-09T10:01:25;95366.98;;;36.48;31.73
6851;BME280;3464;42.728;23.296;2022-09-09T10:03:51;95370.57;;;36.94;31.37
6851;BME280;3464;42.728;23.296;2022-09-09T10:06:28;95370.62;;;36.75;31.97
6851;BME280;3464;42.728;23.296;2022-09-09T10:08:44;95380.87;;;37.46;30.80
6851;BME280;3464;42.728;23.296;2022-09-09T10:11:20;95381.78;;;37.73;30.55
6851;BME280;3464;42.728;23.296;2022-09-09T10:13:52;95381.80;;;37.63;30.67
6851;BME280;3464;42.728;23.296;2022-09-09T10:16:25;95391.37;;;37.09;30.99
6851;BME280;3464;42.728;23.296;2022-09-09T10:18:58;95391.82;;;36.53;31.90
6851;BME280;3464;42.728;23.296;2022-09-09T10:22:17;95387.46;;;36.15;32.53
6851;BME280;3464;42.728;23.296;2022-09-09T10:24:36;95382.62;;;35.18;34.08
6851;BME280;3464;42.728;23.296;2022-09-09T10:27:19;95389.05;;;34.94;34.17
6851;BME280;3464;42.728;23.296;2022-09-09T10:30:55;95386.28;;;34.49;34.54
6851;BME280;3464;42.728;23.296;2022-09-09T10:32:46;95388.58;;;34.94;34.49
6851;BME280;3464;42.728;23.296;2022-09-09T10:35:27;95389.00;;;35.14;34.17
6851;BME280;3464;42.728;23.296;2022-09-09T10:41:11;95393.42;;;34.83;34.51
6851;BME280;3464;42.728;23.296;2022-09-09T10:43:50;95396.89;;;33.95;35.40
6851;BME280;3464;42.728;23.296;2022-09-09T10:46:16;95400.07;;;34.30;35.51
6851;BME280;3464;42.728;23.296;2022-09-09T10:48:48;95394.72;;;34.06;35.82
6851;BME280;3464;42.728;23.296;2022-09-09T10:51:21;95401.12;;;34.07;36.04
6851;BME280;3464;42.728;23.296;2022-09-09T10:53:55;95399.73;;;34.66;35.37
6851;BME280;3464;42.728;23.296;2022-09-09T10:56:22;95400.78;;;33.58;36.55
6851;BME280;3464;42.728;23.296;2022-09-09T10:58:54;95393.47;;;33.89;36.60
6851;BME280;3464;42.728;23.296;2022-09-09T11:01:22;95392.87;;;34.07;36.44
6851;BME280;3464;42.728;23.296;2022-09-09T11:03:49;95386.19;;;33.77;36.55
6851;BME280;3464;42.728;23.296;2022-09-09T11:06:16;95396.16;;;33.28;37.33
6851;BME280;3464;42.728;23.296;2022-09-09T11:08:41;95387.53;;;33.60;37.07
6851;BME280;3464;42.728;23.296;2022-09-09T11:14:01;95386.55;;;33.89;37.44
6851;BME280;3464;42.728;23.296;2022-09-09T11:19:01;95376.31;;;34.07;37.20
6851;BME280;3464;42.728;23.296;2022-09-09T11:21:38;95372.23;;;34.46;36.54
6851;BME280;3464;42.728;23.296;2022-09-09T11:24:15;95370.09;;;34.81;36.22
6851;BME280;3464;42.728;23.296;2022-09-09T11:26:51;95374.00;;;34.86;36.14
6851;BME280;3464;42.728;23.296;2022-09-09T11:29:38;95368.63;;;35.23;35.54
6851;BME280;3464;42.728;23.296;2022-09-09T11:32:26;95357.50;;;35.75;34.79
6851;BME280;3464;42.728;23.296;2022-09-09T11:34:54;95355.78;;;35.35;35.01
6851;BME280;3464;42.728;23.296;2022-09-09T11:37:34;95343.97;;;34.60;35.96
6851;BME280;3464;42.728;23.296;2022-09-09T11:40:31;95331.71;;;35.61;34.77
6851;BME280;3464;42.728;23.296;2022-09-09T11:42:40;95318.60;;;35.56;34.62
6851;BME280;3464;42.728;23.296;2022-09-09T11:45:24;95315.50;;;35.66;34.92
6851;BME280;3464;42.728;23.296;2022-09-09T11:47:52;95313.44;;;34.91;36.16
6851;BME280;3464;42.728;23.296;2022-09-09T11:50:33;95303.02;;;35.40;35.26
6851;BME280;3464;42.728;23.296;2022-09-09T11:56:09;95302.36;;;36.14;34.58
6851;BME280;3464;42.728;23.296;2022-09-09T11:58:40;95304.13;;;35.47;35.65
6851;BME280;3464;42.728;23.296;2022-09-09T12:01:13;95310.60;;;36.43;34.40
6851;BME280;3464;42.728;23.296;2022-09-09T12:03:48;95308.77;;;36.11;34.56
6851;BME280;3464;42.728;23.296;2022-09-09T12:06:24;95305.95;;;36.32;34.35
6851;BME280;3464;42.728;23.296;2022-09-09T12:08:48;95303.25;;;36.14;34.70
6851;BME280;3464;42.728;23.296;2022-09-09T12:11:22;95291.58;;;35.74;35.40
6851;BME280;3464;42.728;23.296;2022-09-09T12:14:02;95289.66;;;36.38;35.08
6851;BME280;3464;42.728;23.296;2022-09-09T12:16:32;95278.90;;;35.26;36.56
6851;BME280;3464;42.728;23.296;2022-09-09T12:19:12;95279.53;;;33.77;38.62
6851;BME280;3464;42.728;23.296;2022-09-09T12:21:36;95274.63;;;34.40;37.83
6851;BME280;3464;42.728;23.296;2022-09-09T12:26:41;95274.77;;;34.33;38.31
6851;BME280;3464;42.728;23.296;2022-09-09T12:29:12;95277.09;;;35.17;37.33
6851;BME280;3464;42.728;23.296;2022-09-09T12:32:15;95278.67;;;34.79;37.70
6851;BME280;3464;42.728;23.296;2022-09-09T12:34:32;95265.41;;;34.31;38.81
6851;BME280;3464;42.728;23.296;2022-09-09T12:36:57;95260.59;;;33.48;39.86
6851;BME280;3464;42.728;23.296;2022-09-09T12:39:45;95263.53;;;33.44;40.10
6851;BME280;3464;42.728;23.296;2022-09-09T12:42:18;95260.06;;;33.65;39.76
6851;BME280;3464;42.728;23.296;2022-09-09T12:44:53;95260.55;;;33.49;40.34
6851;BME280;3464;42.728;23.296;2022-09-09T12:47:20;95262.81;;;33.69;40.33
6851;BME280;3464;42.728;23.296;2022-09-09T12:49:45;95249.33;;;34.20;39.32
6851;BME280;3464;42.728;23.296;2022-09-09T12:52:14;95252.27;;;34.97;38.31
6851;BME280;3464;42.728;23.296;2022-09-09T12:54:42;95250.05;;;35.02;38.41
6851;BME280;3464;42.728;23.296;2022-09-09T12:57:09;95249.73;;;35.59;37.47
6851;BME280;3464;42.728;23.296;2022-09-09T12:59:37;95236.23;;;35.35;37.38
6851;BME280;3464;42.728;23.296;2022-09-09T13:02:02;95245.00;;;35.87;36.69
6851;BME280;3464;42.728;23.296;2022-09-09T13:04:28;95238.24;;;35.27;37.67
6851;BME280;3464;42.728;23.296;2022-09-09T13:07:05;95243.71;;;34.61;38.19
6851;BME280;3464;42.728;23.296;2022-09-09T13:09:21;95248.53;;;34.14;38.46
6851;BME280;3464;42.728;23.296;2022-09-09T13:11:49;95249.05;;;34.79;37.70
6851;BME280;3464;42.728;23.296;2022-09-09T13:14:18;95238.59;;;34.89;37.73
6851;BME280;3464;42.728;23.296;2022-09-09T13:19:18;95235.08;;;34.70;38.17
6851;BME280;3464;42.728;23.296;2022-09-09T13:21:44;95223.08;;;35.11;37.56
6851;BME280;3464;42.728;23.296;2022-09-09T13:24:25;95214.26;;;35.12;37.46
6851;BME280;3464;42.728;23.296;2022-09-09T13:26:56;95216.99;;;34.97;37.70
6851;BME280;3464;42.728;23.296;2022-09-09T13:29:22;95209.38;;;34.84;37.77
6851;BME280;3464;42.728;23.296;2022-09-09T13:31:49;95209.56;;;34.57;38.19
6851;BME280;3464;42.728;23.296;2022-09-09T13:34:32;95215.88;;;33.94;39.27
6851;BME280;3464;42.728;23.296;2022-09-09T13:37:00;95207.85;;;33.80;39.61
6851;BME280;3464;42.728;23.296;2022-09-09T13:39:26;95211.13;;;33.73;39.62
6851;BME280;3464;42.728;23.296;2022-09-09T13:41:54;95202.95;;;33.46;40.06
6851;BME280;3464;42.728;23.296;2022-09-09T13:44:23;95201.06;;;33.20;40.70
6851;BME280;3464;42.728;23.296;2022-09-09T13:46:59;95190.66;;;33.47;40.55
6851;BME280;3464;42.728;23.296;2022-09-09T13:49:21;95182.47;;;33.93;39.97
6851;BME280;3464;42.728;23.296;2022-09-09T13:51:49;95194.03;;;33.74;40.33
6851;BME280;3464;42.728;23.296;2022-09-09T13:54:15;95190.20;;;34.45;39.48
6851;BME280;3464;42.728;23.296;2022-09-09T13:56:41;95188.45;;;34.64;39.50
6851;BME280;3464;42.728;23.296;2022-09-09T13:59:11;95186.66;;;35.09;38.10
6851;BME280;3464;42.728;23.296;2022-09-09T14:01:37;95190.27;;;34.98;38.37